createdAt,value
2018-06-16T00:00:42.806Z,16.63
2018-06-16T00:01:42.898Z,16.55
2018-06-16T00:02:42.996Z,16.49
2018-06-16T00:03:43.094Z,16.48
2018-06-16T00:04:43.191Z,16.55
2018-06-16T00:05:43.286Z,16.48
2018-06-16T00:06:43.385Z,16.48
2018-06-16T00:07:43.483Z,16.22
2018-06-16T00:08:43.580Z,15.93
2018-06-16T00:09:43.678Z,15.99
2018-06-16T00:10:43.775Z,15.79
2018-06-16T00:11:43.867Z,15.74
2018-06-16T00:12:43.957Z,15.56
2018-06-16T00:13:44.055Z,15.48
2018-06-16T00:14:44.961Z,15.41
2018-06-16T00:15:44.318Z,15.38
2018-06-16T00:16:44.416Z,15.49
2018-06-16T00:17:44.501Z,15.52
2018-06-16T00:18:44.591Z,15.45
2018-06-16T00:19:44.687Z,15.54
2018-06-16T00:20:44.794Z,15.49
2018-06-16T00:21:44.889Z,15.61
2018-06-16T00:22:44.976Z,15.68
2018-06-16T00:23:45.064Z,15.68
2018-06-16T00:24:45.168Z,15.70
2018-06-16T00:25:45.343Z,15.66
2018-06-16T00:26:45.388Z,15.68
2018-06-16T00:27:45.479Z,15.75
2018-06-16T00:28:45.568Z,15.72
2018-06-16T00:29:45.685Z,15.79
2018-06-16T00:30:45.773Z,15.78
2018-06-16T00:31:45.859Z,15.82
2018-06-16T00:32:45.952Z,15.88
2018-06-16T00:33:46.044Z,15.78
2018-06-16T00:34:46.133Z,15.81
2018-06-16T00:35:46.286Z,15.89
2018-06-16T00:36:46.372Z,15.84
2018-06-16T00:37:46.472Z,15.79
2018-06-16T00:38:46.572Z,15.59
2018-06-16T00:39:46.653Z,15.68
2018-06-16T00:40:46.761Z,15.67
2018-06-16T00:41:46.865Z,15.72
2018-06-16T00:42:46.959Z,15.72
2018-06-16T00:43:47.053Z,15.67
2018-06-16T00:44:47.185Z,15.51
2018-06-16T00:45:47.300Z,15.42
2018-06-16T00:46:47.279Z,15.49
2018-06-16T00:47:47.399Z,15.42
2018-06-16T00:48:47.498Z,15.57
2018-06-16T00:49:47.589Z,15.52
2018-06-16T00:50:47.702Z,15.64
2018-06-16T00:51:47.793Z,15.59
2018-06-16T00:52:47.907Z,15.67
2018-06-16T00:53:47.988Z,15.72
2018-06-16T00:54:48.076Z,15.67
2018-06-16T00:55:48.163Z,15.68
2018-06-16T00:56:48.260Z,15.75
2018-06-16T00:57:48.357Z,15.79
2018-06-16T00:58:48.493Z,15.76
2018-06-16T00:59:48.596Z,15.81
2018-06-16T01:00:48.690Z,15.79
2018-06-16T01:01:48.784Z,15.78
2018-06-16T01:02:48.902Z,15.85
2018-06-16T01:03:49.005Z,15.82
2018-06-16T01:04:49.106Z,15.79
2018-06-16T01:05:49.197Z,15.88
2018-06-16T01:06:49.283Z,15.99
2018-06-16T01:07:49.376Z,15.94
2018-06-16T01:08:49.475Z,16.01
2018-06-16T01:09:49.562Z,15.93
2018-06-16T01:10:49.657Z,15.89
2018-06-16T01:11:49.775Z,15.97
2018-06-16T01:12:49.870Z,15.89
2018-06-16T01:13:49.964Z,15.74
2018-06-16T01:14:50.065Z,15.64
2018-06-16T01:15:50.155Z,15.45
2018-06-16T01:16:50.246Z,15.45
2018-06-16T01:17:50.330Z,15.52
2018-06-16T01:18:50.422Z,15.49
2018-06-16T01:19:50.520Z,15.51
2018-06-16T01:20:50.618Z,15.49
2018-06-16T01:21:50.713Z,15.68
2018-06-16T01:22:50.811Z,15.64
2018-06-16T01:23:50.909Z,15.72
2018-06-16T01:24:51.005Z,15.70
2018-06-16T01:25:51.088Z,15.74
2018-06-16T01:26:51.193Z,15.67
2018-06-16T01:27:51.275Z,15.75
2018-06-16T01:28:51.368Z,15.79
2018-06-16T01:29:51.463Z,15.75
2018-06-16T01:30:51.565Z,15.79
2018-06-16T01:31:51.670Z,15.85
2018-06-16T01:32:51.754Z,15.94
2018-06-16T01:33:51.852Z,15.92
2018-06-16T01:34:51.963Z,15.94
2018-06-16T01:35:52.057Z,15.96
2018-06-16T01:36:52.154Z,15.93
2018-06-16T01:37:52.245Z,15.99
2018-06-16T01:38:52.373Z,15.92
2018-06-16T01:39:52.476Z,15.96
2018-06-16T01:40:52.570Z,15.89
2018-06-16T01:41:52.675Z,15.79
2018-06-16T01:42:52.762Z,15.66
2018-06-16T01:43:52.852Z,15.76
2018-06-16T01:44:52.986Z,15.75
2018-06-16T01:45:53.085Z,15.64
2018-06-16T01:46:53.191Z,15.70
2018-06-16T01:47:53.291Z,15.61
2018-06-16T01:48:53.389Z,15.56
2018-06-16T01:49:53.489Z,15.61
2018-06-16T01:50:53.580Z,15.63
2018-06-16T01:51:53.673Z,15.59
2018-06-16T01:52:53.767Z,15.70
2018-06-16T01:53:53.860Z,15.72
2018-06-16T01:54:53.958Z,15.68
2018-06-16T01:55:54.051Z,15.79
2018-06-16T01:56:54.144Z,15.78
2018-06-16T01:57:54.239Z,15.82
2018-06-16T01:58:54.332Z,15.86
2018-06-16T01:59:54.427Z,15.93
2018-06-16T02:00:54.525Z,15.94
2018-06-16T02:01:54.624Z,15.85
2018-06-16T02:02:54.723Z,15.67
2018-06-16T02:03:54.824Z,15.51
2018-06-16T02:04:54.920Z,15.45
2018-06-16T02:05:55.015Z,15.46
2018-06-16T02:06:55.106Z,15.51
2018-06-16T02:07:55.200Z,15.52
2018-06-16T02:08:55.298Z,15.56
2018-06-16T02:09:55.424Z,15.51
2018-06-16T02:10:55.510Z,15.48
2018-06-16T02:11:55.626Z,15.09
2018-06-16T02:12:55.728Z,15.08
2018-06-16T02:13:55.832Z,15.03
2018-06-16T02:14:55.936Z,15.06
2018-06-16T02:15:56.033Z,14.98
2018-06-16T02:16:56.125Z,15.01
2018-06-16T02:17:56.222Z,14.88
2018-06-16T02:18:56.316Z,14.81
2018-06-16T02:19:56.420Z,14.83
2018-06-16T02:20:56.526Z,14.75
2018-06-16T02:21:56.619Z,14.83
2018-06-16T02:22:56.721Z,14.86
2018-06-16T02:23:56.818Z,14.75
2018-06-16T02:24:56.914Z,14.93
2018-06-16T02:25:57.025Z,14.90
2018-06-16T02:26:57.107Z,14.95
2018-06-16T02:27:57.205Z,15.05
2018-06-16T02:28:57.301Z,15.05
2018-06-16T02:29:57.399Z,15.12
2018-06-16T02:30:57.497Z,15.20
2018-06-16T02:31:57.595Z,15.24
2018-06-16T02:32:57.689Z,15.30
2018-06-16T02:33:57.793Z,15.35
2018-06-16T02:34:57.889Z,15.42
2018-06-16T02:35:57.983Z,15.24
2018-06-16T02:36:58.072Z,15.26
2018-06-16T02:37:58.166Z,15.31
2018-06-16T02:38:58.265Z,15.24
2018-06-16T02:39:58.360Z,15.20
2018-06-16T02:40:58.462Z,15.17
2018-06-16T02:41:58.554Z,15.12
2018-06-16T02:42:58.652Z,15.09
2018-06-16T02:43:58.751Z,15.03
2018-06-16T02:44:58.850Z,15.02
2018-06-16T02:45:58.951Z,15.06
2018-06-16T02:46:59.045Z,15.01
2018-06-16T02:47:59.141Z,15.06
2018-06-16T02:48:59.236Z,15.06
2018-06-16T02:49:59.332Z,15.21
2018-06-16T02:50:59.429Z,15.20
2018-06-16T02:51:59.526Z,15.13
2018-06-16T02:52:59.628Z,15.27
2018-06-16T02:53:59.720Z,15.27
2018-06-16T02:54:59.820Z,15.26
2018-06-16T02:55:59.916Z,15.27
2018-06-16T02:57:00.010Z,15.33
2018-06-16T02:58:00.104Z,15.02
2018-06-16T02:59:00.199Z,15.02
2018-06-16T03:00:00.300Z,14.71
2018-06-16T03:01:00.397Z,14.52
2018-06-16T03:02:00.498Z,14.50
2018-06-16T03:03:00.591Z,14.32
2018-06-16T03:04:00.689Z,14.46
2018-06-16T03:05:00.784Z,14.46
2018-06-16T03:06:00.884Z,14.44
2018-06-16T03:07:00.980Z,14.56
2018-06-16T03:08:01.080Z,14.54
2018-06-16T03:09:01.178Z,14.72
2018-06-16T03:10:01.275Z,14.65
2018-06-16T03:11:01.380Z,14.75
2018-06-16T03:12:01.477Z,14.64
2018-06-16T03:13:01.568Z,14.74
2018-06-16T03:14:01.663Z,14.80
2018-06-16T03:15:01.785Z,14.83
2018-06-16T03:16:01.853Z,14.81
2018-06-16T03:17:01.943Z,14.80
2018-06-16T03:18:02.036Z,14.80
2018-06-16T03:19:02.131Z,14.90
2018-06-16T03:20:02.230Z,14.86
2018-06-16T03:21:02.325Z,14.88
2018-06-16T03:22:02.426Z,14.94
2018-06-16T03:23:02.522Z,14.84
2018-06-16T03:24:02.619Z,14.81
2018-06-16T03:25:02.716Z,14.88
2018-06-16T03:26:02.813Z,14.84
2018-06-16T03:27:02.911Z,14.90
2018-06-16T03:28:03.009Z,14.93
2018-06-16T03:29:03.106Z,14.90
2018-06-16T03:30:03.203Z,15.02
2018-06-16T03:31:03.332Z,14.99
2018-06-16T03:32:03.395Z,14.91
2018-06-16T03:33:03.494Z,15.01
2018-06-16T03:34:03.589Z,15.03
2018-06-16T03:35:03.686Z,14.91
2018-06-16T03:36:03.785Z,14.99
2018-06-16T03:37:03.872Z,14.91
2018-06-16T03:38:03.969Z,15.01
2018-06-16T03:39:04.067Z,14.91
2018-06-16T03:40:04.165Z,14.99
2018-06-16T03:41:04.263Z,14.86
2018-06-16T03:42:04.359Z,14.87
2018-06-16T03:43:04.454Z,14.80
2018-06-16T03:44:04.552Z,14.67
2018-06-16T03:45:04.650Z,14.44
2018-06-16T03:46:04.746Z,14.32
2018-06-16T03:47:04.839Z,14.21
2018-06-16T03:48:04.937Z,14.37
2018-06-16T03:49:05.035Z,14.24
2018-06-16T03:50:05.133Z,14.31
2018-06-16T03:51:05.231Z,14.29
2018-06-16T03:52:05.328Z,14.27
2018-06-16T03:53:05.429Z,14.27
2018-06-16T03:54:05.526Z,14.31
2018-06-16T03:55:05.622Z,14.44
2018-06-16T03:56:05.720Z,14.39
2018-06-16T03:57:05.815Z,14.49
2018-06-16T03:58:05.912Z,14.43
2018-06-16T03:59:06.009Z,14.42
2018-06-16T04:00:06.106Z,14.39
2018-06-16T04:01:06.202Z,14.43
2018-06-16T04:02:06.298Z,14.46
2018-06-16T04:03:06.398Z,14.53
2018-06-16T04:04:06.491Z,14.52
2018-06-16T04:05:06.587Z,14.56
2018-06-16T04:06:06.690Z,14.64
2018-06-16T04:07:06.782Z,14.65
2018-06-16T04:08:06.880Z,14.64
2018-06-16T04:09:06.979Z,14.71
2018-06-16T04:10:07.094Z,14.69
2018-06-16T04:11:07.191Z,14.75
2018-06-16T04:12:07.287Z,14.75
2018-06-16T04:13:07.385Z,14.78
2018-06-16T04:14:07.483Z,14.78
2018-06-16T04:15:07.577Z,14.78
2018-06-16T04:16:07.676Z,14.86
2018-06-16T04:17:07.772Z,14.86
2018-06-16T04:18:07.870Z,14.84
2018-06-16T04:19:07.966Z,14.86
2018-06-16T04:20:08.063Z,14.99
2018-06-16T04:21:08.161Z,14.93
2018-06-16T04:22:08.260Z,14.88
2018-06-16T04:23:08.353Z,14.91
2018-06-16T04:24:08.452Z,14.78
2018-06-16T04:25:08.548Z,14.86
2018-06-16T04:26:08.642Z,14.87
2018-06-16T04:27:08.737Z,14.88
2018-06-16T04:28:08.835Z,14.95
2018-06-16T04:29:08.934Z,14.84
2018-06-16T04:30:09.029Z,14.95
2018-06-16T04:31:09.127Z,14.91
2018-06-16T04:32:09.222Z,15.02
2018-06-16T04:33:09.322Z,15.06
2018-06-16T04:34:09.412Z,14.98
2018-06-16T04:35:09.532Z,14.99
2018-06-16T04:36:09.605Z,14.90
2018-06-16T04:37:09.701Z,14.90
2018-06-16T04:38:09.800Z,14.71
2018-06-16T04:39:09.898Z,14.49
2018-06-16T04:40:09.993Z,14.47
2018-06-16T04:41:10.097Z,14.42
2018-06-16T04:42:10.199Z,14.25
2018-06-16T04:43:10.294Z,14.20
2018-06-16T04:44:10.387Z,14.10
2018-06-16T04:45:10.482Z,14.19
2018-06-16T04:46:10.578Z,14.10
2018-06-16T04:47:10.676Z,14.09
2018-06-16T04:48:10.772Z,14.14
2018-06-16T04:49:10.872Z,14.20
2018-06-16T04:50:10.968Z,14.19
2018-06-16T04:51:11.066Z,14.16
2018-06-16T04:52:11.166Z,14.19
2018-06-16T04:53:11.264Z,14.27
2018-06-16T04:54:11.360Z,14.31
2018-06-16T04:55:11.456Z,14.34
2018-06-16T04:56:11.552Z,14.34
2018-06-16T04:57:11.649Z,14.42
2018-06-16T04:58:11.746Z,14.42
2018-06-16T04:59:11.846Z,14.50
2018-06-16T05:00:11.941Z,14.53
2018-06-16T05:01:12.039Z,14.49
2018-06-16T05:02:12.131Z,14.62
2018-06-16T05:03:12.231Z,14.62
2018-06-16T05:04:12.325Z,14.71
2018-06-16T05:05:12.423Z,14.74
2018-06-16T05:06:12.532Z,14.80
2018-06-16T05:07:12.628Z,14.91
2018-06-16T05:08:12.726Z,14.87
2018-06-16T05:09:12.825Z,14.98
2018-06-16T05:10:12.922Z,15.08
2018-06-16T05:11:13.019Z,15.11
2018-06-16T05:12:13.116Z,15.24
2018-06-16T05:13:13.205Z,15.35
2018-06-16T05:14:13.299Z,15.48
2018-06-16T05:15:13.395Z,15.52
2018-06-16T05:16:13.496Z,15.60
2018-06-16T05:17:13.592Z,15.82
2018-06-16T05:18:13.689Z,15.76
2018-06-16T05:19:13.789Z,15.88
2018-06-16T05:20:13.880Z,15.88
2018-06-16T05:21:13.974Z,16.12
2018-06-16T05:22:14.064Z,16.49
2018-06-16T05:23:14.171Z,16.65
2018-06-16T05:24:15.117Z,16.78
2018-06-16T05:25:14.406Z,16.88
2018-06-16T05:26:14.563Z,16.99
2018-06-16T05:27:14.562Z,17.14
2018-06-16T05:28:14.679Z,17.15
2018-06-16T05:29:14.777Z,17.20
2018-06-16T05:30:14.901Z,17.44
2018-06-16T05:31:14.999Z,17.63
2018-06-16T05:32:15.089Z,17.95
2018-06-16T05:33:15.185Z,18.58
2018-06-16T05:34:15.425Z,19.29
2018-06-16T05:35:15.546Z,19.78
2018-06-16T05:36:15.511Z,20.24
2018-06-16T05:37:15.656Z,20.20
2018-06-16T05:38:15.661Z,20.10
2018-06-16T05:39:15.785Z,20.00
2018-06-16T05:40:16.041Z,19.97
2018-06-16T05:41:16.045Z,19.86
2018-06-16T05:42:16.145Z,19.86
2018-06-16T05:43:16.282Z,19.83
2018-06-16T05:44:16.396Z,19.79
2018-06-16T05:45:16.499Z,19.80
2018-06-16T05:46:16.579Z,19.75
2018-06-16T05:47:16.668Z,19.79
2018-06-16T05:48:16.757Z,19.80
2018-06-16T05:49:16.857Z,19.76
2018-06-16T05:50:16.951Z,19.70
2018-06-16T05:51:17.041Z,19.76
2018-06-16T05:52:17.180Z,19.76
2018-06-16T05:53:17.294Z,19.84
2018-06-16T05:54:17.404Z,19.80
2018-06-16T05:55:17.520Z,19.84
2018-06-16T05:56:17.616Z,19.91
2018-06-16T05:57:17.751Z,19.97
2018-06-16T05:58:17.854Z,19.97
2018-06-16T05:59:17.943Z,19.95
2018-06-16T06:00:18.050Z,19.97
2018-06-16T06:01:18.155Z,19.97
2018-06-16T06:02:18.254Z,19.87
2018-06-16T06:03:18.352Z,19.95
2018-06-16T06:04:18.459Z,19.78
2018-06-16T06:05:18.595Z,19.78
2018-06-16T06:06:18.817Z,19.88
2018-06-16T06:07:18.820Z,19.87
2018-06-16T06:08:18.926Z,19.86
2018-06-16T06:09:19.033Z,19.78
2018-06-16T06:10:19.208Z,19.80
2018-06-16T06:11:19.289Z,19.80
2018-06-16T06:12:19.431Z,19.93
2018-06-16T06:13:19.558Z,19.84
2018-06-16T06:14:19.655Z,19.97
2018-06-16T06:15:19.751Z,20.06
2018-06-16T06:16:19.866Z,20.08
2018-06-16T06:17:19.994Z,20.08
2018-06-16T06:18:20.121Z,20.23
2018-06-16T06:19:20.210Z,20.23
2018-06-16T06:20:20.308Z,20.21
2018-06-16T06:21:20.446Z,20.23
2018-06-16T06:22:20.548Z,20.38
2018-06-16T06:23:20.656Z,20.39
2018-06-16T06:24:20.746Z,20.46
2018-06-16T06:25:20.832Z,20.53
2018-06-16T06:26:20.918Z,20.54
2018-06-16T06:27:21.053Z,20.68
2018-06-16T06:28:21.157Z,20.71
2018-06-16T06:29:21.262Z,20.84
2018-06-16T06:30:21.362Z,20.83
2018-06-16T06:31:21.461Z,20.66
2018-06-16T06:32:21.548Z,20.79
2018-06-16T06:33:21.688Z,20.84
2018-06-16T06:34:21.776Z,20.86
2018-06-16T06:35:21.877Z,20.89
2018-06-16T06:36:21.970Z,20.89
2018-06-16T06:37:22.061Z,20.99
2018-06-16T06:38:22.191Z,20.93
2018-06-16T06:39:22.315Z,20.96
2018-06-16T06:40:22.423Z,20.99
2018-06-16T06:41:22.522Z,20.96
2018-06-16T06:42:22.630Z,21.06
2018-06-16T06:43:22.748Z,21.04
2018-06-16T06:44:22.844Z,20.90
2018-06-16T06:45:22.950Z,21.05
2018-06-16T06:46:23.089Z,21.08
2018-06-16T06:47:23.191Z,21.17
2018-06-16T06:48:23.315Z,21.19
2018-06-16T06:49:23.436Z,21.14
2018-06-16T06:50:23.541Z,21.23
2018-06-16T06:51:23.644Z,21.23
2018-06-16T06:52:23.755Z,21.35
2018-06-16T06:53:23.854Z,21.38
2018-06-16T06:54:23.952Z,21.44
2018-06-16T06:55:24.054Z,21.50
2018-06-16T06:56:24.142Z,21.50
2018-06-16T06:57:24.241Z,21.60
2018-06-16T06:58:24.347Z,21.59
2018-06-16T06:59:24.466Z,21.63
2018-06-16T07:00:24.565Z,21.48
2018-06-16T07:01:24.667Z,21.64
2018-06-16T07:02:24.767Z,21.76
2018-06-16T07:03:24.869Z,21.74
2018-06-16T07:04:24.976Z,21.82
2018-06-16T07:05:25.069Z,21.90
2018-06-16T07:06:25.180Z,21.97
2018-06-16T07:07:25.292Z,21.97
2018-06-16T07:08:25.385Z,22.09
2018-06-16T07:09:25.554Z,22.10
2018-06-16T07:10:25.599Z,22.16
2018-06-16T07:11:25.700Z,22.10
2018-06-16T07:12:25.793Z,22.23
2018-06-16T07:13:25.952Z,22.38
2018-06-16T07:14:26.055Z,22.41
2018-06-16T07:15:26.155Z,22.46
2018-06-16T07:16:26.259Z,22.46
2018-06-16T07:17:26.363Z,22.54
2018-06-16T07:18:26.549Z,22.53
2018-06-16T07:19:26.520Z,22.57
2018-06-16T07:20:26.629Z,22.69
2018-06-16T07:21:26.728Z,22.75
2018-06-16T07:22:26.824Z,22.86
2018-06-16T07:23:27.016Z,22.94
2018-06-16T07:24:27.052Z,23.04
2018-06-16T07:25:27.164Z,23.02
2018-06-16T07:26:27.283Z,22.97
2018-06-16T07:27:27.391Z,23.08
2018-06-16T07:28:27.492Z,23.07
2018-06-16T07:29:27.623Z,23.07
2018-06-16T07:30:27.728Z,23.15
2018-06-16T07:31:28.149Z,23.23
2018-06-16T07:32:27.924Z,23.27
2018-06-16T07:33:28.019Z,23.34
2018-06-16T07:34:28.119Z,23.43
2018-06-16T07:35:28.211Z,23.47
2018-06-16T07:36:28.324Z,23.29
2018-06-16T07:37:28.421Z,23.32
2018-06-16T07:38:28.526Z,23.53
2018-06-16T07:39:28.690Z,23.29
2018-06-16T07:40:28.673Z,22.99
2018-06-16T07:41:28.807Z,22.87
2018-06-16T07:42:28.859Z,23.12
2018-06-16T07:43:28.960Z,23.32
2018-06-16T07:44:29.115Z,23.42
2018-06-16T07:45:29.198Z,23.61
2018-06-16T07:46:29.311Z,23.67
2018-06-16T07:47:29.406Z,23.83
2018-06-16T07:48:29.513Z,23.95
2018-06-16T07:49:29.616Z,24.04
2018-06-16T07:50:29.732Z,24.08
2018-06-16T07:51:29.836Z,24.17
2018-06-16T07:52:29.944Z,24.29
2018-06-16T07:53:30.039Z,24.38
2018-06-16T07:54:30.133Z,24.41
2018-06-16T07:55:30.239Z,24.54
2018-06-16T07:56:30.353Z,24.60
2018-06-16T07:57:30.455Z,24.68
2018-06-16T07:58:30.556Z,24.73
2018-06-16T07:59:30.658Z,24.80
2018-06-16T08:00:30.757Z,24.82
2018-06-16T08:01:30.862Z,24.90
2018-06-16T08:02:30.966Z,24.94
2018-06-16T08:03:31.072Z,25.02
2018-06-16T08:04:31.173Z,25.17
2018-06-16T08:05:31.278Z,25.07
2018-06-16T08:06:31.381Z,25.27
2018-06-16T08:07:31.474Z,25.12
2018-06-16T08:08:31.588Z,25.16
2018-06-16T08:09:31.690Z,25.31
2018-06-16T08:10:31.794Z,25.25
2018-06-16T08:11:31.899Z,25.28
2018-06-16T08:12:32.006Z,25.30
2018-06-16T08:13:32.110Z,25.34
2018-06-16T08:14:32.215Z,25.38
2018-06-16T08:15:32.321Z,25.47
2018-06-16T08:16:32.429Z,25.44
2018-06-16T08:17:32.538Z,25.46
2018-06-16T08:18:32.643Z,25.53
2018-06-16T08:19:32.748Z,25.49
2018-06-16T08:20:32.889Z,25.47
2018-06-16T08:21:32.988Z,25.42
2018-06-16T08:22:33.087Z,25.49
2018-06-16T08:23:33.195Z,25.54
2018-06-16T08:24:33.302Z,25.54
2018-06-16T08:25:33.397Z,25.64
2018-06-16T08:26:33.501Z,25.75
2018-06-16T08:27:33.607Z,25.75
2018-06-16T08:28:33.711Z,25.72
2018-06-16T08:29:33.807Z,25.74
2018-06-16T08:30:33.916Z,25.82
2018-06-16T08:31:34.019Z,25.80
2018-06-16T08:32:34.126Z,25.84
2018-06-16T08:33:34.232Z,25.74
2018-06-16T08:34:34.337Z,25.80
2018-06-16T08:35:34.442Z,25.82
2018-06-16T08:36:34.549Z,25.86
2018-06-16T08:37:34.654Z,25.77
2018-06-16T08:38:34.760Z,25.89
2018-06-16T08:39:34.866Z,25.91
2018-06-16T08:40:34.971Z,25.84
2018-06-16T08:41:35.075Z,25.97
2018-06-16T08:42:35.183Z,25.87
2018-06-16T08:43:35.301Z,25.84
2018-06-16T08:44:35.399Z,25.84
2018-06-16T08:45:35.505Z,25.93
2018-06-16T08:46:35.612Z,25.99
2018-06-16T08:47:35.713Z,26.02
2018-06-16T08:48:35.865Z,26.02
2018-06-16T08:49:35.929Z,25.99
2018-06-16T08:50:36.032Z,26.06
2018-06-16T08:51:36.131Z,26.15
2018-06-16T08:52:36.237Z,26.02
2018-06-16T08:53:36.343Z,26.02
2018-06-16T08:54:36.446Z,26.11
2018-06-16T08:55:36.667Z,25.82
2018-06-16T08:56:36.651Z,25.99
2018-06-16T08:57:36.755Z,25.97
2018-06-16T08:58:36.851Z,26.05
2018-06-16T08:59:36.955Z,26.02
2018-06-16T09:00:37.063Z,26.11
2018-06-16T09:01:37.165Z,26.12
2018-06-16T09:02:37.275Z,26.25
2018-06-16T09:03:37.380Z,26.32
2018-06-16T09:04:37.487Z,26.20
2018-06-16T09:05:37.593Z,26.24
2018-06-16T09:06:37.697Z,26.06
2018-06-16T09:07:37.808Z,25.99
2018-06-16T09:08:37.909Z,26.17
2018-06-16T09:09:38.015Z,26.15
2018-06-16T09:10:38.120Z,26.28
2018-06-16T09:11:38.226Z,26.47
2018-06-16T09:12:38.340Z,26.49
2018-06-16T09:13:38.445Z,26.54
2018-06-16T09:14:38.557Z,26.44
2018-06-16T09:15:38.657Z,26.49
2018-06-16T09:16:38.755Z,26.68
2018-06-16T09:17:38.861Z,26.84
2018-06-16T09:18:38.967Z,26.86
2018-06-16T09:19:39.073Z,26.96
2018-06-16T09:20:39.178Z,27.05
2018-06-16T09:21:39.282Z,27.11
2018-06-16T09:22:39.438Z,27.29
2018-06-16T09:23:39.493Z,27.29
2018-06-16T09:24:39.603Z,27.21
2018-06-16T09:25:39.706Z,27.35
2018-06-16T09:26:39.814Z,27.36
2018-06-16T09:27:39.922Z,27.41
2018-06-16T09:28:40.035Z,27.48
2018-06-16T09:29:40.133Z,27.24
2018-06-16T09:30:40.244Z,27.39
2018-06-16T09:31:40.369Z,27.43
2018-06-16T09:32:40.451Z,27.43
2018-06-16T09:33:40.558Z,27.42
2018-06-16T09:34:40.677Z,27.46
2018-06-16T09:35:40.782Z,27.42
2018-06-16T09:36:40.888Z,27.53
2018-06-16T09:37:40.993Z,27.57
2018-06-16T09:38:41.101Z,27.58
2018-06-16T09:39:41.207Z,27.53
2018-06-16T09:40:41.313Z,27.53
2018-06-16T09:41:41.421Z,27.41
2018-06-16T09:42:41.519Z,27.09
2018-06-16T09:43:41.622Z,27.13
2018-06-16T09:44:41.727Z,27.24
2018-06-16T09:45:41.839Z,27.26
2018-06-16T09:46:41.942Z,27.26
2018-06-16T09:47:42.048Z,27.26
2018-06-16T09:48:42.157Z,27.41
2018-06-16T09:49:42.261Z,27.42
2018-06-16T09:50:42.366Z,27.76
2018-06-16T09:51:42.475Z,27.74
2018-06-16T09:52:42.583Z,27.69
2018-06-16T09:53:42.691Z,27.73
2018-06-16T09:54:42.796Z,27.79
2018-06-16T09:55:42.902Z,27.80
2018-06-16T09:56:43.008Z,27.91
2018-06-16T09:57:43.115Z,27.95
2018-06-16T09:58:43.221Z,27.99
2018-06-16T09:59:43.328Z,27.98
2018-06-16T10:00:43.435Z,28.03
2018-06-16T10:01:43.539Z,28.10
2018-06-16T10:02:43.649Z,28.04
2018-06-16T10:03:43.754Z,28.06
2018-06-16T10:04:43.852Z,28.11
2018-06-16T10:05:43.957Z,28.14
2018-06-16T10:06:44.068Z,28.22
2018-06-16T10:07:44.184Z,28.21
2018-06-16T10:08:44.292Z,28.06
2018-06-16T10:09:44.394Z,27.82
2018-06-16T10:10:44.518Z,27.95
2018-06-16T10:11:44.641Z,27.91
2018-06-16T10:12:44.755Z,27.80
2018-06-16T10:13:44.844Z,27.95
2018-06-16T10:14:44.984Z,27.96
2018-06-16T10:15:45.084Z,28.06
2018-06-16T10:16:45.198Z,28.13
2018-06-16T10:17:45.306Z,28.23
2018-06-16T10:18:45.422Z,28.25
2018-06-16T10:19:45.516Z,28.17
2018-06-16T10:20:45.617Z,28.17
2018-06-16T10:21:45.721Z,28.21
2018-06-16T10:22:45.878Z,28.26
2018-06-16T10:23:46.140Z,28.10
2018-06-16T10:24:46.133Z,28.09
2018-06-16T10:25:46.236Z,27.86
2018-06-16T10:26:46.352Z,27.98
2018-06-16T10:27:46.508Z,28.03
2018-06-16T10:28:46.620Z,28.13
2018-06-16T10:29:46.719Z,28.19
2018-06-16T10:30:46.887Z,28.33
2018-06-16T10:31:46.990Z,28.25
2018-06-16T10:32:47.116Z,28.33
2018-06-16T10:33:47.227Z,28.33
2018-06-16T10:34:47.342Z,28.47
2018-06-16T10:35:47.461Z,28.44
2018-06-16T10:36:47.593Z,28.43
2018-06-16T10:37:47.688Z,28.46
2018-06-16T10:38:47.795Z,28.50
2018-06-16T10:39:47.904Z,28.31
2018-06-16T10:40:48.014Z,28.35
2018-06-16T10:41:48.132Z,28.47
2018-06-16T10:42:48.234Z,28.31
2018-06-16T10:43:48.356Z,28.16
2018-06-16T10:44:48.486Z,28.22
2018-06-16T10:45:48.592Z,28.33
2018-06-16T10:46:48.704Z,28.29
2018-06-16T10:47:48.807Z,28.36
2018-06-16T10:48:48.908Z,28.46
2018-06-16T10:49:49.012Z,28.59
2018-06-16T10:50:49.106Z,28.59
2018-06-16T10:51:49.197Z,28.70
2018-06-16T10:52:49.327Z,28.77
2018-06-16T10:53:49.464Z,28.82
2018-06-16T10:54:49.559Z,28.84
2018-06-16T10:55:49.661Z,28.91
2018-06-16T10:56:49.760Z,28.96
2018-06-16T10:57:49.876Z,29.04
2018-06-16T10:58:50.045Z,29.07
2018-06-16T10:59:50.181Z,29.04
2018-06-16T11:00:50.307Z,29.03
2018-06-16T11:01:50.415Z,29.00
2018-06-16T11:02:50.519Z,28.87
2018-06-16T11:03:50.629Z,29.00
2018-06-16T11:04:50.737Z,28.97
2018-06-16T11:05:50.839Z,28.95
2018-06-16T11:06:50.950Z,29.15
2018-06-16T11:07:51.050Z,29.15
2018-06-16T11:08:51.167Z,29.15
2018-06-16T11:09:51.279Z,29.16
2018-06-16T11:10:51.392Z,29.23
2018-06-16T11:11:51.491Z,29.13
2018-06-16T11:12:51.598Z,29.31
2018-06-16T11:13:51.708Z,29.33
2018-06-16T11:14:51.816Z,29.19
2018-06-16T11:15:51.929Z,29.23
2018-06-16T11:16:52.046Z,29.16
2018-06-16T11:17:52.152Z,29.29
2018-06-16T11:18:52.257Z,29.31
2018-06-16T11:19:52.385Z,29.33
2018-06-16T11:20:52.490Z,29.33
2018-06-16T11:21:52.600Z,29.35
2018-06-16T11:22:52.697Z,29.56
2018-06-16T11:23:52.789Z,29.53
2018-06-16T11:24:52.892Z,29.52
2018-06-16T11:25:53.010Z,29.59
2018-06-16T11:26:53.105Z,29.63
2018-06-16T11:27:53.213Z,29.41
2018-06-16T11:28:53.318Z,29.43
2018-06-16T11:29:53.425Z,29.34
2018-06-16T11:30:53.530Z,29.59
2018-06-16T11:31:53.628Z,29.59
2018-06-16T11:32:53.740Z,29.52
2018-06-16T11:33:53.844Z,29.63
2018-06-16T11:34:53.949Z,29.41
2018-06-16T11:35:54.048Z,29.53
2018-06-16T11:36:54.158Z,29.68
2018-06-16T11:37:54.271Z,29.78
2018-06-16T11:38:54.370Z,29.92
2018-06-16T11:39:54.477Z,29.75
2018-06-16T11:40:54.639Z,29.84
2018-06-16T11:41:54.680Z,29.89
2018-06-16T11:42:54.793Z,29.87
2018-06-16T11:43:54.945Z,29.87
2018-06-16T11:44:55.054Z,29.90
2018-06-16T11:45:55.188Z,29.82
2018-06-16T11:46:55.297Z,29.77
2018-06-16T11:47:55.395Z,29.82
2018-06-16T11:48:55.503Z,29.74
2018-06-16T11:49:55.613Z,29.84
2018-06-16T11:50:55.709Z,30.02
2018-06-16T11:51:55.815Z,30.05
2018-06-16T11:52:55.922Z,29.94
2018-06-16T11:53:56.032Z,29.86
2018-06-16T11:54:56.127Z,29.87
2018-06-16T11:55:56.233Z,29.79
2018-06-16T11:56:56.353Z,30.07
2018-06-16T11:57:56.453Z,30.12
2018-06-16T11:58:56.554Z,30.21
2018-06-16T11:59:56.661Z,30.21
2018-06-16T12:00:56.773Z,30.19
2018-06-16T12:01:56.933Z,29.79
2018-06-16T12:02:57.008Z,29.96
2018-06-16T12:03:57.117Z,30.00
2018-06-16T12:04:57.222Z,29.93
2018-06-16T12:05:57.330Z,29.78
2018-06-16T12:06:57.440Z,29.78
2018-06-16T12:07:57.546Z,29.86
2018-06-16T12:08:57.652Z,29.65
2018-06-16T12:09:57.767Z,29.70
2018-06-16T12:10:57.875Z,29.75
2018-06-16T12:11:57.981Z,29.74
2018-06-16T12:12:58.089Z,29.78
2018-06-16T12:13:58.198Z,29.90
2018-06-16T12:14:58.307Z,29.82
2018-06-16T12:15:58.416Z,29.82
2018-06-16T12:16:58.525Z,29.96
2018-06-16T12:17:58.633Z,30.02
2018-06-16T12:18:58.739Z,29.97
2018-06-16T12:19:58.848Z,29.90
2018-06-16T12:20:58.974Z,29.77
2018-06-16T12:21:59.084Z,29.26
2018-06-16T12:22:59.193Z,29.03
2018-06-16T12:23:59.303Z,29.11
2018-06-16T12:24:59.412Z,29.13
2018-06-16T12:25:59.519Z,29.29
2018-06-16T12:26:59.627Z,29.55
2018-06-16T12:27:59.738Z,29.66
2018-06-16T12:28:59.842Z,29.84
2018-06-16T12:29:59.952Z,29.86
2018-06-16T12:31:00.062Z,30.03
2018-06-16T12:32:00.169Z,30.18
2018-06-16T12:33:00.280Z,30.18
2018-06-16T12:34:00.386Z,30.21
2018-06-16T12:35:00.494Z,30.30
2018-06-16T12:36:00.603Z,30.30
2018-06-16T12:37:00.713Z,30.15
2018-06-16T12:38:00.823Z,30.23
2018-06-16T12:39:00.929Z,30.30
2018-06-16T12:40:01.035Z,30.43
2018-06-16T12:41:01.144Z,30.53
2018-06-16T12:42:01.253Z,30.43
2018-06-16T12:43:01.366Z,30.34
2018-06-16T12:44:01.475Z,30.40
2018-06-16T12:45:01.582Z,30.34
2018-06-16T12:46:01.692Z,30.46
2018-06-16T12:47:01.805Z,30.31
2018-06-16T12:48:01.914Z,30.26
2018-06-16T12:49:02.023Z,30.27
2018-06-16T12:50:02.138Z,30.26
2018-06-16T12:51:02.238Z,30.26
2018-06-16T12:52:02.346Z,30.26
2018-06-16T12:53:02.459Z,30.46
2018-06-16T12:54:02.563Z,30.43